Time;durP1;ratioP1;P1;durP2;ratioP2;P2;SDS_P1;SDS_P2;PMS_P1;PMS_P2;Temp;Humidity;BMP_temperature;BMP_pressure;BME280_temperature;BME280_humidity;BME280_pressure;Samples;Min_cycle;Max_cycle;Signal;HPM_P1;HPM_P2
2022/04/03 00:01:38;;;;;;;4.57;1.90;;;0.70;77.80;;;;;;4167357;28;20554;-79
2022/04/03 00:03:41;;;;;;;7.10;2.67;;;0.70;78.60;;;;;;4166699;28;20472;-79
2022/04/03 00:05:44;;;;;;;4.97;1.80;;;0.80;79.20;;;;;;4151317;28;20537;-79
2022/04/03 00:07:46;;;;;;;4.77;1.77;;;0.70;80.00;;;;;;4146887;28;20471;-78
2022/04/03 00:09:47;;;;;;;2.63;1.60;;;0.60;80.90;;;;;;4136477;28;20487;-79
2022/04/03 00:11:49;;;;;;;4.83;1.60;;;0.60;81.90;;;;;;4132577;28;20467;-79
2022/04/03 00:13:51;;;;;;;2.90;1.50;;;0.60;82.80;;;;;;4132606;28;21436;-79
2022/04/03 00:15:53;;;;;;;3.00;1.60;;;0.60;83.50;;;;;;4144072;28;20513;-79
2022/04/03 00:17:54;;;;;;;3.37;1.57;;;0.60;84.40;;;;;;4150402;28;20486;-78
2022/04/03 00:19:56;;;;;;;5.13;2.10;;;0.60;85.60;;;;;;4149577;28;20493;-79
2022/04/03 00:22:01;;;;;;;3.80;1.90;;;0.60;86.30;;;;;;4149309;28;20940;-79
2022/04/03 00:24:03;;;;;;;6.37;1.83;;;0.50;87.00;;;;;;4149166;28;20487;-80
2022/04/03 00:26:05;;;;;;;2.67;1.77;;;0.50;87.50;;;;;;4145052;28;20557;-79
2022/04/03 00:28:07;;;;;;;3.60;1.40;;;0.50;88.00;;;;;;4146787;28;21078;-79
2022/04/03 00:30:10;;;;;;;2.77;1.30;;;0.50;88.10;;;;;;4147839;28;20505;-80
2022/04/03 00:32:12;;;;;;;2.60;1.50;;;0.50;88.70;;;;;;4140684;28;20475;-79
2022/04/03 00:34:13;;;;;;;3.67;1.50;;;0.50;89.30;;;;;;4148220;28;21001;-79
2022/04/03 00:36:15;;;;;;;4.37;1.90;;;0.50;90.10;;;;;;4147648;28;20481;-79
2022/04/03 00:38:18;;;;;;;2.30;1.47;;;0.50;90.20;;;;;;4147267;28;20537;-79
2022/04/03 00:40:23;;;;;;;2.47;1.70;;;0.40;90.10;;;;;;4146429;28;20470;-78
2022/04/03 00:42:25;;;;;;;2.13;1.30;;;0.40;90.40;;;;;;4144161;28;20501;-79
2022/04/03 00:44:27;;;;;;;2.23;1.37;;;0.40;90.70;;;;;;4143336;28;20528;-79
2022/04/03 00:46:29;;;;;;;2.73;1.50;;;0.40;90.60;;;;;;4144181;28;20466;-79
2022/04/03 00:48:32;;;;;;;2.67;1.27;;;0.40;90.60;;;;;;4146267;28;20486;-78
2022/04/03 00:50:34;;;;;;;3.80;1.53;;;0.40;90.90;;;;;;4146000;28;20936;-79
2022/04/03 00:52:35;;;;;;;3.73;1.43;;;0.40;91.00;;;;;;4144786;28;20474;-78
2022/04/03 00:54:38;;;;;;;2.77;1.43;;;0.30;91.10;;;;;;4146382;28;20529;-79
2022/04/03 00:56:41;;;;;;;4.23;1.20;;;0.30;91.30;;;;;;4147085;28;20562;-79
2022/04/03 00:58:43;;;;;;;3.13;1.30;;;0.30;91.30;;;;;;4147060;28;20462;-78
2022/04/03 01:00:44;;;;;;;2.47;1.20;;;0.30;91.50;;;;;;4147244;28;20463;-79
2022/04/03 01:02:46;;;;;;;5.47;1.50;;;0.30;91.60;;;;;;4143401;28;20468;-79
2022/04/03 01:04:48;;;;;;;3.83;1.50;;;0.20;91.90;;;;;;4147062;28;20485;-79
2022/04/03 01:06:50;;;;;;;2.80;1.50;;;0.20;92.10;;;;;;4146146;28;20462;-79
2022/04/03 01:08:52;;;;;;;4.20;1.23;;;0.20;92.40;;;;;;4145827;28;20493;-79
2022/04/03 01:10:55;;;;;;;2.83;1.40;;;0.10;92.70;;;;;;4139137;28;20824;-79
2022/04/03 01:12:57;;;;;;;2.43;1.47;;;0.10;93.00;;;;;;4146748;28;20459;-79
2022/04/03 01:14:58;;;;;;;4.57;1.73;;;0.10;93.30;;;;;;4144387;28;20474;-79
2022/04/03 01:17:01;;;;;;;3.73;1.30;;;0.10;93.80;;;;;;4146732;28;20493;-78
2022/04/03 01:19:03;;;;;;;4.67;1.50;;;0.10;94.30;;;;;;4147363;28;20500;-79
2022/04/03 01:21:05;;;;;;;4.00;1.50;;;0.00;95.10;;;;;;4148737;28;20513;-78
2022/04/03 01:23:07;;;;;;;1.93;1.30;;;0.00;95.40;;;;;;4150573;28;20451;-78
2022/04/03 01:25:10;;;;;;;2.90;1.63;;;0.00;95.80;;;;;;4152551;28;20553;-78
2022/04/03 01:27:12;;;;;;;8.60;1.40;;;0.00;96.20;;;;;;4147889;28;20470;-78
2022/04/03 01:29:15;;;;;;;2.30;1.10;;;-0.10;96.70;;;;;;4146012;28;20552;-78
2022/04/03 01:31:17;;;;;;;3.43;1.50;;;-0.10;97.10;;;;;;4149950;28;20557;-79
2022/04/03 01:33:19;;;;;;;3.30;1.40;;;-0.10;97.60;;;;;;4134831;28;20459;-78
2022/04/03 01:35:20;;;;;;;3.30;1.57;;;-0.20;97.90;;;;;;4141557;28;20467;-79
2022/04/03 01:37:22;;;;;;;2.57;1.40;;;-0.20;98.40;;;;;;4149741;28;20525;-79
2022/04/03 01:39:24;;;;;;;5.27;1.70;;;-0.20;98.80;;;;;;4149118;28;20450;-79
2022/04/03 01:41:27;;;;;;;3.23;1.67;;;-0.30;99.00;;;;;;4147960;28;20476;-79
2022/04/03 01:43:29;;;;;;;5.87;1.50;;;-0.30;99.40;;;;;;4152775;28;20817;-79
2022/04/03 01:45:31;;;;;;;3.87;1.70;;;-0.30;99.70;;;;;;4143086;28;20972;-79
2022/04/03 01:47:32;;;;;;;3.10;1.63;;;-0.40;99.90;;;;;;4148104;28;20459;-79
2022/04/03 01:49:34;;;;;;;3.30;1.67;;;-0.40;99.90;;;;;;4145350;28;20487;-79
2022/04/03 01:51:36;;;;;;;5.22;1.70;;;-0.40;99.90;;;;;;4153569;28;20474;-79
2022/04/03 01:53:38;;;;;;;5.63;1.50;;;-0.40;99.90;;;;;;4148351;28;20208;-79
2022/04/03 01:55:40;;;;;;;4.73;1.43;;;-0.50;99.90;;;;;;4151887;28;20470;-79
2022/04/03 01:57:43;;;;;;;4.50;1.87;;;-0.50;99.90;;;;;;4150392;28;20477;-78
2022/04/03 01:59:45;;;;;;;3.40;1.63;;;-0.60;99.90;;;;;;4132779;28;20526;-79
2022/04/03 02:01:47;;;;;;;4.43;1.80;;;-0.60;99.90;;;;;;4144965;28;20462;-79
2022/04/03 02:03:49;;;;;;;3.50;1.50;;;-0.60;99.90;;;;;;4148306;28;20475;-79
2022/04/03 02:05:51;;;;;;;4.57;1.60;;;-0.70;99.90;;;;;;4149453;28;20633;-79
2022/04/03 02:07:53;;;;;;;4.40;1.80;;;-0.70;99.90;;;;;;4149599;28;20470;-79
2022/04/03 02:09:55;;;;;;;6.83;1.60;;;-0.70;99.90;;;;;;4146787;28;20568;-80
2022/04/03 02:11:57;;;;;;;3.93;1.77;;;-0.80;99.90;;;;;;4148909;28;20519;-79
2022/04/03 02:14:00;;;;;;;4.47;1.80;;;-0.80;99.90;;;;;;4155006;28;20568;-79
2022/04/03 02:16:01;;;;;;;4.10;1.73;;;-0.80;99.90;;;;;;4149277;28;20462;-79
2022/04/03 02:18:04;;;;;;;3.70;2.03;;;-0.80;99.90;;;;;;4140192;28;20475;-79
2022/04/03 02:20:07;;;;;;;6.65;2.03;;;-0.90;99.90;;;;;;4146967;28;20295;-79
2022/04/03 02:22:08;;;;;;;4.05;2.00;;;-0.90;99.90;;;;;;4145523;28;20273;-79
2022/04/03 02:24:10;;;;;;;6.07;1.98;;;-1.00;99.90;;;;;;4149426;28;21201;-79
2022/04/03 02:26:12;;;;;;;3.53;1.65;;;-1.00;99.90;;;;;;4145937;28;20540;-79
2022/04/03 02:28:14;;;;;;;4.05;2.15;;;-1.00;99.90;;;;;;4149183;28;20298;-79
2022/04/03 02:30:17;;;;;;;6.07;1.90;;;-1.10;99.90;;;;;;4149252;28;20301;-79
2022/04/03 02:32:20;;;;;;;5.60;2.20;;;-1.10;99.90;;;;;;4143453;28;20456;-79
2022/04/03 02:34:22;;;;;;;3.45;1.60;;;-1.10;99.90;;;;;;4148913;28;20430;-79
2022/04/03 02:36:24;;;;;;;5.13;1.50;;;-1.20;99.90;;;;;;4147881;28;20211;-79
2022/04/03 02:38:26;;;;;;;3.55;1.80;;;-1.20;99.90;;;;;;4148037;28;20258;-79
2022/04/03 02:40:28;;;;;;;4.40;2.10;;;-1.20;99.90;;;;;;4148012;28;20267;-79
2022/04/03 02:42:29;;;;;;;2.95;1.70;;;-1.20;99.90;;;;;;4139279;28;20255;-78
2022/04/03 02:44:31;;;;;;;5.70;1.70;;;-1.20;99.90;;;;;;4132746;28;20279;-79
2022/04/03 02:46:34;;;;;;;3.15;1.40;;;-1.30;99.90;;;;;;4145114;28;20208;-79
2022/04/03 02:48:36;;;;;;;4.32;2.00;;;-1.30;99.90;;;;;;4148713;28;20299;-79
2022/04/03 02:50:38;;;;;;;2.85;1.70;;;-1.30;99.90;;;;;;4145977;28;20259;-79
2022/04/03 02:52:39;;;;;;;2.83;1.60;;;-1.30;99.90;;;;;;4149054;28;20230;-78
2022/04/03 02:54:41;;;;;;;7.05;1.85;;;-1.30;99.90;;;;;;4151788;28;20608;-79
2022/04/03 02:56:43;;;;;;;6.35;2.00;;;-1.40;99.90;;;;;;4148404;28;20250;-78
2022/04/03 02:58:45;;;;;;;4.75;2.47;;;-1.40;99.90;;;;;;4139652;28;20204;-78
2022/04/03 03:00:47;;;;;;;4.18;1.80;;;-1.40;99.90;;;;;;4138153;28;20227;-78
2022/04/03 03:02:52;;;;;;;2.95;1.75;;;-1.40;99.90;;;;;;4148800;28;20274;-78
2022/04/03 03:04:53;;;;;;;4.72;2.15;;;-1.50;99.90;;;;;;4162077;28;20266;-78
2022/04/03 03:06:55;;;;;;;6.20;2.10;;;-1.50;99.90;;;;;;4147944;28;20214;-78
2022/04/03 03:08:57;;;;;;;3.42;2.00;;;-1.50;99.90;;;;;;4144966;28;20254;-79
2022/04/03 03:10:58;;;;;;;4.30;1.90;;;-1.60;99.90;;;;;;4148415;28;20642;-78
2022/04/03 03:13:00;;;;;;;4.78;2.17;;;-1.60;99.90;;;;;;4148885;28;20688;-78
2022/04/03 03:15:04;;;;;;;5.03;2.40;;;-1.60;99.90;;;;;;4148303;28;20240;-78
2022/04/03 03:17:06;;;;;;;2.92;1.80;;;-1.60;99.90;;;;;;4147849;28;20215;-78
2022/04/03 03:19:09;;;;;;;4.00;1.80;;;-1.60;99.90;;;;;;4152632;28;20222;-78
2022/04/03 03:21:11;;;;;;;7.90;2.22;;;-1.70;99.90;;;;;;4147253;28;20235;-78
2022/04/03 03:23:13;;;;;;;4.82;1.80;;;-1.70;99.90;;;;;;4147550;28;20215;-78
2022/04/03 03:25:15;;;;;;;5.25;2.20;;;-1.70;99.90;;;;;;4147570;28;20235;-78
2022/04/03 03:27:16;;;;;;;3.88;2.13;;;-1.70;99.90;;;;;;4140744;28;20212;-78
2022/04/03 03:29:18;;;;;;;2.88;2.10;;;-1.80;99.90;;;;;;4149306;28;20253;-78
2022/04/03 03:31:20;;;;;;;5.05;2.10;;;-1.80;99.90;;;;;;4148480;28;20212;-79
2022/04/03 03:33:22;;;;;;;7.10;2.42;;;-1.80;99.90;;;;;;4148530;28;20348;-79
2022/04/03 03:35:25;;;;;;;7.88;2.60;;;-1.90;99.90;;;;;;4140224;28;20248;-79
2022/04/03 03:37:27;;;;;;;3.80;2.20;;;-1.80;99.90;;;;;;4147718;28;20673;-79
2022/04/03 03:39:29;;;;;;;4.88;2.28;;;-1.90;99.90;;;;;;4147648;28;20672;-79
2022/04/03 03:41:30;;;;;;;4.57;2.20;;;-1.90;99.90;;;;;;4154879;28;20268;-79
2022/04/03 03:43:32;;;;;;;5.07;2.42;;;-1.90;99.90;;;;;;4147400;28;20216;-78
2022/04/03 03:45:34;;;;;;;6.10;2.35;;;-1.90;99.90;;;;;;4147546;28;20208;-79
2022/04/03 03:47:36;;;;;;;4.72;2.30;;;-2.00;99.90;;;;;;4147547;28;20262;-78
2022/04/03 03:49:38;;;;;;;6.90;2.35;;;-2.00;99.90;;;;;;4149863;28;20727;-78
2022/04/03 03:51:41;;;;;;;4.20;2.10;;;-2.10;99.90;;;;;;4146834;28;20262;-79
2022/04/03 03:53:43;;;;;;;4.10;2.33;;;-2.10;99.90;;;;;;4147448;28;20220;-78
2022/04/03 03:55:45;;;;;;;3.38;1.90;;;-2.10;99.90;;;;;;4141455;28;20215;-78
2022/04/03 03:57:47;;;;;;;7.25;2.40;;;-2.10;99.90;;;;;;4142607;28;20258;-78
2022/04/03 03:59:49;;;;;;;5.40;2.75;;;-2.10;99.90;;;;;;4145986;28;20270;-78
2022/04/03 04:01:51;;;;;;;6.30;2.08;;;-2.20;99.90;;;;;;4147980;28;20919;-79
2022/04/03 04:03:52;;;;;;;3.92;1.90;;;-2.20;99.90;;;;;;4147638;28;20278;-78
2022/04/03 04:05:54;;;;;;;5.60;2.30;;;-2.20;99.90;;;;;;4143696;28;20204;-78
2022/04/03 04:07:57;;;;;;;3.63;2.00;;;-2.30;99.90;;;;;;4147171;28;20212;-79
2022/04/03 04:09:59;;;;;;;4.03;1.98;;;-2.30;99.90;;;;;;4147598;28;20232;-78
2022/04/03 04:12:01;;;;;;;4.85;1.73;;;-2.30;99.90;;;;;;4147262;28;20234;-78
2022/04/03 04:14:03;;;;;;;6.35;2.72;;;-2.40;99.90;;;;;;4153240;23;20277;-79
2022/04/03 04:16:06;;;;;;;10.02;2.28;;;-2.30;99.90;;;;;;4142884;28;20223;-77
2022/04/03 04:18:07;;;;;;;5.03;2.13;;;-2.40;99.90;;;;;;4147619;28;20728;-77
2022/04/03 04:20:12;;;;;;;4.60;2.10;;;-2.40;99.90;;;;;;4135191;28;20697;-78
2022/04/03 04:22:14;;;;;;;9.65;2.60;;;-2.40;99.90;;;;;;4150497;28;20736;-77
2022/04/03 04:24:18;;;;;;;4.55;2.40;;;-2.50;99.90;;;;;;4146912;28;20232;-77
2022/04/03 04:26:19;;;;;;;6.22;2.50;;;-2.50;99.90;;;;;;4146436;28;20230;-77
2022/04/03 04:28:21;;;;;;;3.97;2.13;;;-2.50;99.90;;;;;;4147037;28;20724;-77
2022/04/03 04:30:24;;;;;;;7.10;2.65;;;-2.50;99.90;;;;;;4147462;28;20695;-77
2022/04/03 04:32:26;;;;;;;7.53;3.00;;;-2.60;99.90;;;;;;4140141;28;20207;-77
2022/04/03 04:34:27;;;;;;;5.78;2.40;;;-2.60;99.90;;;;;;4146300;28;20305;-77
2022/04/03 04:36:29;;;;;;;4.93;2.35;;;-2.60;99.90;;;;;;4151195;28;20216;-77
2022/04/03 04:38:31;;;;;;;4.30;2.40;;;-2.70;99.90;;;;;;4146594;28;20669;-77
2022/04/03 04:40:34;;;;;;;8.02;2.95;;;-2.70;99.90;;;;;;4140712;28;20201;-77
2022/04/03 04:42:36;;;;;;;5.30;2.47;;;-2.70;99.90;;;;;;4153050;28;20208;-77
2022/04/03 04:44:38;;;;;;;7.20;2.45;;;-2.70;99.90;;;;;;4147097;28;20616;-77
2022/04/03 04:46:40;;;;;;;5.45;2.13;;;-2.80;99.90;;;;;;4145753;28;20212;-77
2022/04/03 04:48:41;;;;;;;7.88;2.55;;;-2.80;99.90;;;;;;4146845;28;20204;-77
2022/04/03 04:50:43;;;;;;;7.00;2.70;;;-2.80;99.90;;;;;;4138734;28;20247;-77
2022/04/03 04:52:45;;;;;;;4.63;2.20;;;-2.80;99.90;;;;;;4147003;28;20669;-77
2022/04/03 04:54:47;;;;;;;6.40;2.17;;;-2.80;99.90;;;;;;4147280;28;20273;-77
2022/04/03 04:56:50;;;;;;;7.35;2.05;;;-2.90;99.90;;;;;;4152207;28;20276;-77
2022/04/03 04:58:52;;;;;;;4.57;2.25;;;-2.80;99.90;;;;;;4148167;28;20257;-78
2022/04/03 05:00:53;;;;;;;5.05;3.13;;;-2.90;99.90;;;;;;4151527;28;20649;-77
2022/04/03 05:02:55;;;;;;;3.47;2.00;;;-2.90;99.90;;;;;;4153399;28;20298;-77
2022/04/03 05:04:57;;;;;;;7.63;2.50;;;-2.90;99.90;;;;;;4142926;28;20236;-77
2022/04/03 05:06:59;;;;;;;5.47;2.08;;;-2.90;99.90;;;;;;4137529;28;20208;-78
2022/04/03 05:09:02;;;;;;;5.97;2.30;;;-2.90;99.90;;;;;;4147478;28;20245;-77
2022/04/03 05:11:03;;;;;;;5.10;2.13;;;-2.90;99.90;;;;;;4157668;28;20235;-78
2022/04/03 05:13:09;;;;;;;3.90;2.33;;;-2.90;99.90;;;;;;4155249;28;20212;-77
2022/04/03 05:15:12;;;;;;;5.18;2.38;;;-2.90;99.90;;;;;;4154728;28;20248;-77
2022/04/03 05:17:14;;;;;;;3.92;1.95;;;-2.90;99.90;;;;;;4157572;28;20306;-80
2022/04/03 05:19:16;;;;;;;4.00;2.10;;;-2.90;99.90;;;;;;4166083;28;20238;-80
2022/04/03 05:21:18;;;;;;;8.43;3.55;;;-3.00;99.90;;;;;;4166271;28;20204;-79
2022/04/03 05:23:20;;;;;;;8.02;4.53;;;-2.90;99.90;;;;;;4161428;28;20633;-80
2022/04/03 05:25:22;;;;;;;10.52;4.22;;;-3.00;99.90;;;;;;4142377;28;20782;-80
2022/04/03 05:27:24;;;;;;;9.60;3.60;;;-3.00;99.90;;;;;;4147768;28;20673;-80
2022/04/03 05:29:27;;;;;;;14.50;5.80;;;-3.00;99.90;;;;;;4149218;28;20282;-80
2022/04/03 05:31:29;;;;;;;12.60;5.53;;;-3.00;99.90;;;;;;4150194;28;20742;-80
2022/04/03 05:33:31;;;;;;;13.32;5.13;;;-3.10;99.90;;;;;;4136058;28;20208;-80
2022/04/03 05:35:33;;;;;;;17.35;6.38;;;-3.10;99.90;;;;;;4148304;28;20212;-80
2022/04/03 05:37:36;;;;;;;24.05;8.23;;;-3.10;99.90;;;;;;4149187;28;20231;-80
2022/04/03 05:39:38;;;;;;;22.85;8.65;;;-3.00;99.90;;;;;;4145179;28;20214;-79
2022/04/03 05:41:40;;;;;;;12.32;4.50;;;-3.00;99.90;;;;;;4133102;28;20208;-80
2022/04/03 05:43:42;;;;;;;8.85;3.38;;;-3.00;99.90;;;;;;4146852;28;20238;-80
2022/04/03 05:45:45;;;;;;;7.38;2.80;;;-3.00;99.90;;;;;;4149672;28;20215;-80
2022/04/03 05:47:47;;;;;;;11.48;4.50;;;-3.00;99.90;;;;;;4147238;28;20215;-80
2022/04/03 05:49:49;;;;;;;17.67;6.65;;;-3.00;99.90;;;;;;4151940;28;20298;-80
2022/04/03 05:51:51;;;;;;;20.33;8.35;;;-3.00;99.90;;;;;;4142997;28;20247;-79
2022/04/03 05:53:54;;;;;;;27.92;10.27;;;-2.90;99.90;;;;;;4147026;28;20630;-79
2022/04/03 05:55:58;;;;;;;21.25;8.75;;;-2.90;99.90;;;;;;4147702;28;20269;-80
2022/04/03 05:58:00;;;;;;;24.70;8.32;;;-2.90;99.90;;;;;;4148363;28;20208;-79
2022/04/03 06:00:02;;;;;;;22.73;7.63;;;-2.90;99.90;;;;;;4148506;28;20222;-79
2022/04/03 06:02:06;;;;;;;21.45;7.15;;;-2.80;99.90;;;;;;4145852;28;20209;-79
2022/04/03 06:04:08;;;;;;;17.52;6.40;;;-2.70;99.90;;;;;;4149038;28;20236;-79
2022/04/03 06:06:10;;;;;;;15.45;6.47;;;-2.70;99.90;;;;;;4148196;28;20231;-79
2022/04/03 06:08:12;;;;;;;19.77;7.10;;;-2.60;99.90;;;;;;4156302;28;20274;-79
2022/04/03 06:10:15;;;;;;;15.50;6.50;;;-2.60;99.90;;;;;;4148375;28;20569;-79
2022/04/03 06:12:17;;;;;;;15.35;5.45;;;-2.50;99.90;;;;;;4148598;28;20587;-80
2022/04/03 06:14:18;;;;;;;16.70;6.70;;;-2.40;99.90;;;;;;4146079;28;20728;-79
2022/04/03 06:16:20;;;;;;;7.80;4.00;;;-2.30;99.90;;;;;;4139843;28;20647;-79
2022/04/03 06:18:23;;;;;;;7.80;4.18;;;-2.30;99.90;;;;;;4146025;28;20208;-79
2022/04/03 06:20:25;;;;;;;18.70;5.70;;;-2.20;99.90;;;;;;4148327;28;20248;-79
2022/04/03 06:22:27;;;;;;;15.30;6.05;;;-2.10;99.90;;;;;;4144876;28;20263;-79
2022/04/03 06:24:29;;;;;;;6.28;2.88;;;-2.00;99.90;;;;;;4146480;28;20228;-79
2022/04/03 06:26:30;;;;;;;6.70;2.90;;;-1.90;99.90;;;;;;4147473;28;20579;-79
2022/04/03 06:28:32;;;;;;;6.38;2.83;;;-1.90;99.90;;;;;;4145303;28;20688;-79
2022/04/03 06:30:34;;;;;;;7.20;2.78;;;-1.70;99.90;;;;;;4145214;28;20282;-80
2022/04/03 06:32:36;;;;;;;7.75;2.78;;;-1.70;99.90;;;;;;4143567;28;20211;-79
2022/04/03 06:34:39;;;;;;;8.50;3.20;;;-1.60;99.90;;;;;;4144035;28;20243;-79
2022/04/03 06:36:41;;;;;;;8.77;2.85;;;-1.60;99.90;;;;;;4148426;28;20299;-79
2022/04/03 06:38:43;;;;;;;5.13;2.85;;;-1.40;99.90;;;;;;4145741;28;20200;-79
2022/04/03 06:40:49;;;;;;;7.78;3.13;;;-1.40;99.90;;;;;;4145450;28;20199;-79
2022/04/03 06:42:52;;;;;;;7.88;3.30;;;-1.30;99.90;;;;;;4144981;28;20239;-79
2022/04/03 06:44:54;;;;;;;10.85;3.60;;;-1.20;99.90;;;;;;4143914;28;20239;-80
2022/04/03 06:46:56;;;;;;;7.07;3.28;;;-1.20;99.90;;;;;;4141260;28;20270;-79
2022/04/03 06:48:58;;;;;;;8.82;3.83;;;-1.10;99.90;;;;;;4145293;28;20278;-80
2022/04/03 06:51:01;;;;;;;8.85;3.42;;;-1.00;99.90;;;;;;4144796;28;20227;-80
2022/04/03 06:53:04;;;;;;;9.20;3.10;;;-0.90;99.90;;;;;;4145635;28;20216;-79
2022/04/03 06:55:06;;;;;;;5.45;2.65;;;-0.90;99.90;;;;;;4143204;28;20251;-79
2022/04/03 06:57:08;;;;;;;5.57;2.42;;;-0.80;99.90;;;;;;4138134;28;20303;-79
2022/04/03 06:59:10;;;;;;;4.50;2.20;;;-0.70;99.90;;;;;;4143733;28;20243;-80
2022/04/03 07:01:11;;;;;;;7.13;2.23;;;-0.70;99.90;;;;;;4144248;28;20513;-79
2022/04/03 07:03:13;;;;;;;6.53;2.20;;;-0.60;99.90;;;;;;4143784;28;20459;-79
2022/04/03 07:05:15;;;;;;;5.13;2.17;;;-0.50;99.90;;;;;;4146931;28;20545;-79
2022/04/03 07:07:22;;;;;;;6.00;2.47;;;-0.50;99.90;;;;;;4145026;28;20960;-78
2022/04/03 07:09:24;;;;;;;4.10;1.97;;;-0.40;99.90;;;;;;4146752;28;21487;-78
2022/04/03 07:11:26;;;;;;;5.17;1.87;;;-0.30;99.90;;;;;;4147498;28;21357;-79
2022/04/03 07:13:28;;;;;;;8.23;2.50;;;-0.30;98.20;;;;;;4141022;28;20465;-78
2022/04/03 07:15:30;;;;;;;6.23;2.73;;;-0.20;95.30;;;;;;4151811;28;20539;-78
2022/04/03 07:17:31;;;;;;;3.47;1.90;;;-0.10;94.20;;;;;;4148077;28;20463;-78
2022/04/03 07:19:33;;;;;;;4.93;1.70;;;0.00;93.40;;;;;;4148420;28;20475;-78
2022/04/03 07:21:35;;;;;;;5.47;1.83;;;0.10;92.70;;;;;;4148961;28;20541;-78
2022/04/03 07:23:38;;;;;;;3.57;1.90;;;0.10;91.20;;;;;;4144298;28;20956;-78
2022/04/03 07:25:41;;;;;;;4.70;1.90;;;0.20;90.50;;;;;;4148595;28;20455;-78
2022/04/03 07:27:43;;;;;;;2.50;1.57;;;0.30;89.30;;;;;;4145954;28;20478;-78
2022/04/03 07:29:45;;;;;;;5.47;1.90;;;0.30;87.70;;;;;;4149128;28;20490;-80
2022/04/03 07:31:50;;;;;;;2.60;1.60;;;0.40;84.80;;;;;;4146968;28;20489;-79
2022/04/03 07:33:52;;;;;;;5.53;1.70;;;0.40;83.80;;;;;;4150768;28;20472;-78
2022/04/03 07:35:54;;;;;;;3.93;1.97;;;0.50;83.60;;;;;;4151372;28;20461;-80
2022/04/03 07:37:56;;;;;;;4.87;1.80;;;0.60;82.00;;;;;;4151612;28;20463;-80
2022/04/03 07:39:59;;;;;;;4.67;1.80;;;0.60;80.10;;;;;;4154772;28;20510;-85
2022/04/03 07:42:03;;;;;;;3.37;1.77;;;0.70;80.40;;;;;;4152058;28;20455;-84
2022/04/03 07:44:05;;;;;;;4.17;1.80;;;0.60;78.30;;;;;;4150040;28;20474;-81
2022/04/03 07:46:12;;;;;;;3.80;2.00;;;0.90;76.80;;;;;;4150255;28;20940;-84
2022/04/03 07:48:14;;;;;;;6.50;2.10;;;0.90;75.20;;;;;;4148769;28;20482;-85
2022/04/03 07:50:18;;;;;;;6.47;2.10;;;1.00;73.80;;;;;;4139876;28;20517;-80
2022/04/03 07:52:20;;;;;;;3.87;2.03;;;1.00;73.30;;;;;;4148521;28;21013;-79
2022/04/03 07:54:22;;;;;;;4.10;1.80;;;1.10;72.90;;;;;;4150149;28;20479;-81
2022/04/03 07:56:25;;;;;;;7.47;2.40;;;1.10;72.90;;;;;;4152293;28;20464;-83
2022/04/03 07:58:28;;;;;;;5.53;2.40;;;1.30;72.40;;;;;;4150288;28;21020;-81
2022/04/03 08:00:29;;;;;;;3.97;2.00;;;1.30;71.80;;;;;;4147478;28;20471;-81
2022/04/03 08:02:31;;;;;;;4.83;2.20;;;1.30;70.80;;;;;;4153668;28;20485;-82
2022/04/03 08:04:33;;;;;;;3.73;1.90;;;1.30;69.20;;;;;;4154004;28;20511;-79
2022/04/03 08:06:40;;;;;;;4.20;1.67;;;1.30;67.00;;;;;;4152434;28;20547;-85
2022/04/03 08:08:42;;;;;;;4.03;2.20;;;1.20;66.90;;;;;;4153403;28;21059;-82
2022/04/03 08:10:44;;;;;;;4.00;1.90;;;1.20;66.90;;;;;;4158957;28;20897;-78
2022/04/03 08:12:49;;;;;;;2.73;1.53;;;1.20;66.70;;;;;;4159231;28;20523;-80
2022/04/03 08:14:52;;;;;;;3.67;1.60;;;1.20;64.90;;;;;;4152972;28;21021;-79
2022/04/03 08:16:54;;;;;;;6.50;1.97;;;1.20;63.60;;;;;;4148712;28;20468;-79
2022/04/03 08:18:57;;;;;;;3.20;1.67;;;1.20;63.50;;;;;;4149396;28;21030;-79
2022/04/03 08:20:59;;;;;;;2.47;1.50;;;1.20;63.60;;;;;;4143325;28;20509;-79
2022/04/03 08:23:03;;;;;;;3.67;1.90;;;1.20;63.30;;;;;;4148426;28;20455;-79
2022/04/03 08:25:07;;;;;;;2.60;1.63;;;1.30;62.70;;;;;;4145474;28;20860;-79
2022/04/03 08:27:10;;;;;;;4.27;1.70;;;1.30;62.40;;;;;;4147213;28;20464;-82
2022/04/03 08:29:13;;;;;;;3.30;1.67;;;1.40;62.40;;;;;;4148753;28;20467;-82
2022/04/03 08:31:16;;;;;;;2.23;1.50;;;1.40;60.70;;;;;;4148303;28;20475;-84
2022/04/03 08:33:18;;;;;;;4.57;1.63;;;1.50;60.20;;;;;;4148447;28;20518;-82
2022/04/03 08:35:24;;;;;;;3.87;1.50;;;1.60;59.90;;;;;;4146309;28;20925;-83
2022/04/03 08:37:25;;;;;;;3.50;1.60;;;1.70;60.30;;;;;;4146340;28;20472;-79
2022/04/03 08:39:27;;;;;;;2.87;1.43;;;1.70;59.50;;;;;;4144844;28;20476;-84
2022/04/03 08:41:29;;;;;;;2.73;1.57;;;1.80;58.20;;;;;;4144679;28;20460;-79
2022/04/03 08:43:32;;;;;;;2.87;1.60;;;1.80;57.90;;;;;;4142489;28;21358;-79
2022/04/03 08:45:35;;;;;;;5.13;2.03;;;1.90;58.20;;;;;;4145081;28;20491;-82
2022/04/03 08:47:43;;;;;;;3.87;1.40;;;2.20;58.00;;;;;;4152412;28;20992;-80
2022/04/03 08:49:47;;;;;;;3.37;1.00;;;1.90;55.80;;;;;;4147539;28;20504;-80
2022/04/03 08:51:52;;;;;;;4.90;1.53;;;2.00;54.20;;;;;;4148253;28;20490;-78
2022/04/03 08:53:54;;;;;;;2.50;1.20;;;2.10;53.10;;;;;;4148708;28;20910;-81
2022/04/03 08:55:56;;;;;;;2.13;1.20;;;2.10;51.20;;;;;;4146517;28;20960;-79
2022/04/03 08:58:02;;;;;;;1.73;1.10;;;2.20;50.90;;;;;;4143832;28;20452;-78
2022/04/03 09:00:05;;;;;;;1.70;1.00;;;2.20;49.60;;;;;;4140727;28;20465;-80
2022/04/03 09:02:08;;;;;;;1.90;1.13;;;2.30;48.00;;;;;;4145340;28;20952;-81
2022/04/03 09:04:10;;;;;;;2.80;1.13;;;2.30;46.70;;;;;;4150451;28;20467;-81
2022/04/03 09:06:14;;;;;;;3.50;1.20;;;2.40;46.60;;;;;;4149154;28;21081;-81
2022/04/03 09:08:16;;;;;;;2.93;1.50;;;2.50;46.60;;;;;;4143403;28;20472;-79
2022/04/03 09:10:18;;;;;;;4.53;1.13;;;2.60;47.30;;;;;;4154504;28;20463;-77
2022/04/03 09:12:20;;;;;;;4.67;1.50;;;2.70;47.80;;;;;;4147870;28;20997;-78
2022/04/03 09:14:23;;;;;;;1.73;1.10;;;2.90;48.20;;;;;;4143138;28;20493;-78
2022/04/03 09:16:38;;;;;;;2.57;1.33;;;3.00;47.50;;;;;;4155114;28;20465;-79
2022/04/03 09:18:46;;;;;;;3.90;1.43;;;3.10;46.90;;;;;;4155694;28;20473;-79
2022/04/03 09:20:48;;;;;;;2.60;1.23;;;3.30;46.80;;;;;;4151441;28;20475;-78
2022/04/03 09:22:51;;;;;;;3.13;1.43;;;3.40;46.40;;;;;;4146526;28;20816;-78
2022/04/03 09:24:55;;;;;;;2.17;1.00;;;3.50;46.40;;;;;;4143854;28;20496;-78
2022/04/03 09:26:59;;;;;;;2.80;1.20;;;3.50;45.80;;;;;;4149117;28;20457;-79
2022/04/03 09:29:24;;;;;;;3.80;1.40;;;3.60;45.80;;;;;;4145809;28;20485;-79
2022/04/03 09:31:30;;;;;;;3.03;1.37;;;3.70;46.60;;;;;;4140466;28;20477;-79
2022/04/03 09:33:31;;;;;;;3.33;1.30;;;3.80;46.60;;;;;;4147148;28;20533;-80
2022/04/03 09:35:54;;;;;;;3.77;1.50;;;3.80;47.10;;;;;;4149574;28;20995;-79
2022/04/03 09:38:07;;;;;;;3.90;1.43;;;3.80;46.90;;;;;;4150592;28;20474;-80
2022/04/03 09:40:10;;;;;;;2.30;1.40;;;3.90;46.80;;;;;;4149783;28;20470;-79
2022/04/03 09:42:12;;;;;;;4.23;1.20;;;3.90;46.50;;;;;;4151696;28;20457;-80
2022/04/03 09:44:19;;;;;;;2.73;1.40;;;3.90;46.30;;;;;;4145744;28;20501;-83
2022/04/03 09:46:24;;;;;;;2.33;1.60;;;3.90;45.70;;;;;;4153535;28;20478;-84
2022/04/03 09:48:30;;;;;;;1.87;1.20;;;4.00;45.50;;;;;;4161197;28;20461;-81
2022/04/03 09:50:31;;;;;;;6.57;1.93;;;3.90;45.00;;;;;;4157447;28;20467;-83
2022/04/03 09:52:43;;;;;;;3.47;1.30;;;4.00;45.30;;;;;;4153694;28;20928;-82
2022/04/03 09:54:47;;;;;;;2.93;1.40;;;4.10;44.90;;;;;;4151685;28;20482;-83
2022/04/03 09:56:48;;;;;;;2.97;1.20;;;4.30;44.20;;;;;;4150853;28;20546;-80
2022/04/03 09:59:01;;;;;;;3.17;1.50;;;4.20;43.40;;;;;;4151619;28;20972;-79
2022/04/03 10:01:21;;;;;;;2.23;1.23;;;4.20;43.40;;;;;;4153192;28;20485;-81
2022/04/03 10:03:24;;;;;;;2.27;1.10;;;4.30;42.90;;;;;;4149987;28;20841;-81
2022/04/03 10:05:28;;;;;;;2.57;1.20;;;4.30;42.90;;;;;;4149026;28;20458;-79
2022/04/03 10:07:31;;;;;;;1.67;1.20;;;4.30;42.40;;;;;;4149287;28;20833;-80
2022/04/03 10:09:35;;;;;;;1.83;1.17;;;4.30;42.00;;;;;;4153593;28;20840;-80
2022/04/03 10:11:36;;;;;;;2.10;1.20;;;4.40;41.70;;;;;;4152768;28;20505;-78
2022/04/03 10:13:39;;;;;;;2.70;1.93;;;4.30;41.40;;;;;;4149674;28;20459;-78
2022/04/03 10:15:42;;;;;;;4.77;1.63;;;4.30;41.30;;;;;;4173770;23;20488;-72
2022/04/03 10:17:43;;;;;;;2.70;1.50;;;4.30;41.30;;;;;;4148500;28;20454;-74
2022/04/03 10:19:45;;;;;;;3.60;1.23;;;4.20;41.20;;;;;;4148414;28;21032;-72
2022/04/03 10:21:53;;;;;;;1.47;1.10;;;4.20;40.80;;;;;;4150080;28;20486;-72
2022/04/03 10:24:02;;;;;;;1.57;1.17;;;4.20;41.00;;;;;;4149456;28;20527;-74
2022/04/03 10:26:06;;;;;;;1.80;1.17;;;4.30;41.30;;;;;;4145796;28;20481;-72
2022/04/03 10:28:08;;;;;;;3.77;1.40;;;4.60;41.60;;;;;;4148773;28;20835;-72
2022/04/03 10:30:11;;;;;;;3.77;1.03;;;4.60;41.00;;;;;;4145595;28;20474;-72
2022/04/03 10:32:23;;;;;;;1.57;1.07;;;4.70;40.60;;;;;;4146795;28;20490;-72
2022/04/03 10:34:27;;;;;;;1.67;1.20;;;4.90;40.20;;;;;;4148660;28;20505;-72
2022/04/03 10:36:30;;;;;;;4.47;1.20;;;5.10;40.00;;;;;;4147479;28;20475;-72
2022/04/03 10:38:36;;;;;;;2.13;1.03;;;5.20;39.30;;;;;;4146518;28;20478;-72
2022/04/03 10:40:38;;;;;;;1.70;1.23;;;5.30;38.90;;;;;;4148783;28;20971;-73
2022/04/03 10:42:51;;;;;;;2.37;1.03;;;5.50;39.20;;;;;;4148731;28;20540;-74